createdAt,value
2022-12-19T00:00:38.375Z,84.63
2022-12-19T00:03:06.929Z,92.95
2022-12-19T00:05:39.267Z,92.07
2022-12-19T00:08:15.484Z,83.53
2022-12-19T00:10:56.536Z,95.40
2022-12-19T00:13:24.988Z,90.80
2022-12-19T00:15:53.286Z,95.93
2022-12-19T00:18:21.553Z,92.32
2022-12-19T00:20:56.750Z,84.80
2022-12-19T00:23:24.988Z,91.43
2022-12-19T00:25:54.535Z,82.15
2022-12-19T00:28:23.836Z,79.15
2022-12-19T00:30:51.915Z,73.82
2022-12-19T00:33:23.308Z,87.38
2022-12-19T00:35:51.409Z,97.03
2022-12-19T00:38:19.584Z,86.00
2022-12-19T00:40:47.693Z,86.35
2022-12-19T00:43:17.133Z,94.82
2022-12-19T00:45:45.304Z,80.38
2022-12-19T00:48:13.395Z,97.20
2022-12-19T00:50:44.109Z,86.97
2022-12-19T00:53:12.198Z,90.22
2022-12-19T00:55:40.326Z,80.95
2022-12-19T00:58:08.380Z,83.28
2022-12-19T01:00:37.949Z,83.70
2022-12-19T01:03:06.298Z,89.35
2022-12-19T01:05:34.439Z,82.90
2022-12-19T01:08:02.516Z,79.88
2022-12-19T01:10:30.618Z,76.35
2022-12-19T01:12:57.740Z,78.00
2022-12-19T01:15:26.047Z,81.85
2022-12-19T01:17:55.521Z,81.38
2022-12-19T01:20:29.683Z,90.63
2022-12-19T01:23:00.095Z,98.00
2022-12-19T01:25:28.825Z,89.57
2022-12-19T01:27:57.818Z,87.70
2022-12-19T01:30:26.219Z,98.45
2022-12-19T01:32:57.547Z,102.20
2022-12-19T01:35:26.099Z,101.10
2022-12-19T01:37:58.755Z,102.47
2022-12-19T01:40:36.833Z,112.65
2022-12-19T01:43:05.283Z,99.05
2022-12-19T01:45:35.917Z,97.53
2022-12-19T01:48:23.647Z,108.47
2022-12-19T01:51:00.807Z,104.57
2022-12-19T01:53:44.683Z,115.57
2022-12-19T01:56:21.089Z,104.20
2022-12-19T01:58:53.909Z,101.32
2022-12-19T02:01:34.585Z,104.75
2022-12-19T02:04:04.971Z,112.63
2022-12-19T02:06:36.137Z,96.78
2022-12-19T02:09:04.251Z,107.72
2022-12-19T02:11:32.551Z,114.90
2022-12-19T02:14:00.965Z,113.15
2022-12-19T02:16:42.262Z,108.00
2022-12-19T02:19:44.938Z,109.38
2022-12-19T02:22:19.152Z,105.82
2022-12-19T02:25:28.468Z,112.70
2022-12-19T02:28:29.792Z,109.97
2022-12-19T02:31:08.174Z,102.68
2022-12-19T02:33:50.806Z,95.97
2022-12-19T02:36:26.453Z,100.60
2022-12-19T02:38:59.447Z,114.82
2022-12-19T02:41:30.810Z,110.00
2022-12-19T02:43:59.860Z,99.78
2022-12-19T02:46:30.048Z,105.45
2022-12-19T02:48:59.298Z,114.63
2022-12-19T02:51:27.395Z,94.35
2022-12-19T02:53:55.566Z,108.07
2022-12-19T02:56:36.879Z,99.38
2022-12-19T02:59:16.822Z,94.22
2022-12-19T03:01:50.530Z,97.25
2022-12-19T03:04:31.950Z,104.03
2022-12-19T03:07:08.712Z,105.55
2022-12-19T03:09:46.744Z,95.07
2022-12-19T03:12:20.339Z,116.45
2022-12-19T03:14:49.950Z,114.25
2022-12-19T03:17:19.542Z,101.47
2022-12-19T03:19:47.631Z,94.05
2022-12-19T03:22:15.786Z,104.30
2022-12-19T03:24:43.913Z,99.10
2022-12-19T03:27:17.632Z,106.88
2022-12-19T03:29:50.559Z,104.95
2022-12-19T03:32:21.252Z,103.68
2022-12-19T03:34:53.758Z,98.68
2022-12-19T03:37:26.086Z,103.50
2022-12-19T03:39:59.760Z,108.85
2022-12-19T03:42:48.698Z,98.70
2022-12-19T03:45:22.770Z,114.97
2022-12-19T03:47:58.642Z,103.22
2022-12-19T03:50:33.396Z,95.65
2022-12-19T03:53:12.735Z,132.98
2022-12-19T03:55:48.549Z,100.30
2022-12-19T03:58:21.945Z,107.18
2022-12-19T04:00:53.286Z,90.53
2022-12-19T04:03:23.692Z,101.38
2022-12-19T04:05:53.910Z,103.97
2022-12-19T04:08:24.003Z,107.10
2022-12-19T04:10:56.616Z,109.72
2022-12-19T04:13:31.879Z,99.55
2022-12-19T04:16:07.119Z,117.90
2022-12-19T04:18:38.568Z,94.28
2022-12-19T04:21:14.405Z,112.60
2022-12-19T04:23:47.368Z,98.82
2022-12-19T04:26:17.800Z,106.85
2022-12-19T04:28:49.928Z,99.95
2022-12-19T04:31:21.287Z,104.20
2022-12-19T04:33:50.851Z,105.25
2022-12-19T04:36:19.079Z,103.07
2022-12-19T04:38:47.296Z,94.72
2022-12-19T04:41:15.385Z,103.38
2022-12-19T04:43:43.462Z,101.55
2022-12-19T04:46:11.624Z,102.15
2022-12-19T04:48:39.724Z,116.18
2022-12-19T04:51:09.676Z,104.60
2022-12-19T04:53:37.798Z,116.72
2022-12-19T04:56:08.093Z,109.82
2022-12-19T04:58:36.179Z,101.15
2022-12-19T05:01:05.170Z,96.68
2022-12-19T05:03:33.610Z,97.97
2022-12-19T05:06:10.641Z,111.40
2022-12-19T05:08:40.424Z,100.95
2022-12-19T05:11:12.292Z,111.40
2022-12-19T05:13:42.628Z,115.40
2022-12-19T05:16:12.770Z,113.10
2022-12-19T05:18:41.489Z,109.90
2022-12-19T05:21:11.162Z,114.65
2022-12-19T05:23:39.467Z,103.88
2022-12-19T05:26:08.538Z,104.97
2022-12-19T05:28:36.734Z,103.13
2022-12-19T05:31:06.583Z,101.55
2022-12-19T05:33:35.035Z,112.95
2022-12-19T05:36:03.612Z,100.50
2022-12-19T05:38:33.371Z,108.88
2022-12-19T05:41:07.342Z,107.93
2022-12-19T05:43:35.485Z,103.82
2022-12-19T05:46:05.512Z,104.38
2022-12-19T05:48:34.054Z,99.53
2022-12-19T05:51:02.199Z,102.78
2022-12-19T05:53:30.378Z,97.57
2022-12-19T05:56:06.684Z,120.47
2022-12-19T05:58:37.180Z,104.78
2022-12-19T06:01:06.283Z,89.88
2022-12-19T06:03:34.697Z,110.57
2022-12-19T06:06:04.977Z,109.38
2022-12-19T06:08:33.289Z,114.22
2022-12-19T06:11:01.583Z,105.10
2022-12-19T06:13:31.574Z,122.32
2022-12-19T06:16:00.278Z,114.65
2022-12-19T06:18:30.183Z,124.25
2022-12-19T06:21:00.136Z,113.30
2022-12-19T06:23:28.709Z,107.05
2022-12-19T06:25:58.612Z,111.10
2022-12-19T06:28:27.515Z,100.53
2022-12-19T06:30:58.631Z,128.05
2022-12-19T06:33:28.771Z,123.28
2022-12-19T06:36:00.323Z,130.88
2022-12-19T06:38:29.574Z,119.10
2022-12-19T06:41:15.021Z,103.25
2022-12-19T06:43:43.572Z,115.68
2022-12-19T06:46:13.250Z,109.45
2022-12-19T06:48:41.431Z,108.95
2022-12-19T06:51:09.600Z,130.60
2022-12-19T06:53:37.766Z,124.82
2022-12-19T06:56:06.401Z,118.00
2022-12-19T06:58:35.221Z,123.43
2022-12-19T07:01:03.383Z,114.30
2022-12-19T07:03:38.492Z,118.90
2022-12-19T07:06:07.645Z,121.80
2022-12-19T07:08:35.771Z,118.53
2022-12-19T07:11:03.998Z,100.50
2022-12-19T07:13:32.105Z,105.80
2022-12-19T07:16:03.781Z,113.03
2022-12-19T07:18:37.512Z,119.18
2022-12-19T07:21:06.488Z,107.07
2022-12-19T07:23:36.493Z,107.40
2022-12-19T07:26:05.096Z,105.47
2022-12-19T07:28:34.853Z,99.00
2022-12-19T07:31:03.038Z,123.25
2022-12-19T07:33:32.529Z,107.75
2022-12-19T07:36:00.634Z,99.53
2022-12-19T07:38:28.809Z,96.20
2022-12-19T07:40:56.902Z,91.03
2022-12-19T07:43:25.001Z,110.28
2022-12-19T07:45:56.124Z,85.97
2022-12-19T07:48:24.979Z,57.35
2022-12-19T07:50:54.441Z,91.50
2022-12-19T07:53:25.695Z,75.00
2022-12-19T07:55:54.364Z,52.15
2022-12-19T07:58:22.561Z,52.17
2022-12-19T08:00:55.847Z,70.22
2022-12-19T08:03:24.376Z,57.00
2022-12-19T08:05:54.331Z,59.35
2022-12-19T08:08:22.449Z,61.22
2022-12-19T08:10:50.542Z,64.07
2022-12-19T08:13:18.629Z,53.97
2022-12-19T08:15:46.828Z,62.78
2022-12-19T08:18:14.943Z,69.88
2022-12-19T08:20:46.430Z,71.03
2022-12-19T08:23:15.973Z,64.38
2022-12-19T08:25:44.063Z,69.97
2022-12-19T08:28:12.118Z,80.38
2022-12-19T08:30:40.596Z,72.82
2022-12-19T08:33:09.338Z,76.55
2022-12-19T08:35:37.888Z,85.78
2022-12-19T08:38:06.680Z,67.15
2022-12-19T08:40:36.195Z,89.90
2022-12-19T08:43:04.316Z,88.07
2022-12-19T08:45:32.496Z,72.43
2022-12-19T08:48:00.589Z,68.68
2022-12-19T08:50:28.741Z,78.78
2022-12-19T08:52:56.877Z,61.70
2022-12-19T08:55:25.769Z,58.92
2022-12-19T08:57:57.376Z,58.15
2022-12-19T09:00:25.511Z,50.80
2022-12-19T09:02:54.846Z,49.45
2022-12-19T09:06:04.008Z,40.92
2022-12-19T09:08:11.252Z,44.97
2022-12-19T09:10:39.849Z,48.53
2022-12-19T09:13:09.438Z,46.28
2022-12-19T09:15:37.676Z,45.35
2022-12-19T09:18:06.567Z,55.22
2022-12-19T09:20:34.709Z,47.55
2022-12-19T09:23:02.883Z,55.25
2022-12-19T09:25:31.021Z,49.35
2022-12-19T09:28:26.939Z,53.35
2022-12-19T09:30:57.248Z,46.22
2022-12-19T09:33:25.379Z,46.70
2022-12-19T09:35:55.494Z,52.17
2022-12-19T09:38:26.649Z,49.65
2022-12-19T09:41:06.345Z,54.67
2022-12-19T09:43:46.981Z,54.72
2022-12-19T09:46:20.551Z,55.60
2022-12-19T09:48:55.389Z,55.83
2022-12-19T09:51:35.722Z,51.30
2022-12-19T09:54:09.322Z,55.05
2022-12-19T09:56:46.025Z,45.97
2022-12-19T09:59:23.048Z,40.25
2022-12-19T10:02:01.230Z,43.17
2022-12-19T10:04:34.574Z,53.30
2022-12-19T10:07:20.545Z,48.17
2022-12-19T10:12:35.698Z,44.90
2022-12-19T10:12:59.614Z,46.22
2022-12-19T10:15:38.621Z,49.72
2022-12-19T10:18:28.205Z,35.45
2022-12-19T10:21:07.262Z,39.83
2022-12-19T10:23:57.070Z,53.38
2022-12-19T10:26:31.507Z,57.55
2022-12-19T10:29:16.850Z,40.25
2022-12-19T10:31:55.018Z,55.15
2022-12-19T10:34:29.837Z,53.30
2022-12-19T10:37:27.193Z,54.50
2022-12-19T10:39:58.788Z,48.00
2022-12-19T10:42:34.750Z,45.50
2022-12-19T10:45:22.201Z,41.75
2022-12-19T10:47:56.109Z,45.40
2022-12-19T10:50:27.704Z,52.60
2022-12-19T10:52:58.215Z,53.83
2022-12-19T10:55:39.018Z,48.53
2022-12-19T10:58:19.639Z,47.45
2022-12-19T11:00:59.250Z,46.97
2022-12-19T11:03:27.865Z,52.50
2022-12-19T11:05:58.944Z,50.33
2022-12-19T11:08:28.585Z,45.35
2022-12-19T11:13:31.875Z,45.25
2022-12-19T11:20:21.194Z,47.65
2022-12-19T11:26:36.267Z,42.17
2022-12-19T11:26:51.856Z,34.85
2022-12-19T11:30:35.951Z,54.25
2022-12-19T11:30:36.761Z,49.08
2022-12-19T11:30:49.025Z,46.22
2022-12-19T11:34:05.454Z,45.03
2022-12-19T11:36:42.588Z,52.25
2022-12-19T11:39:19.903Z,51.97
2022-12-19T11:41:55.297Z,46.30
2022-12-19T11:44:30.907Z,48.88
2022-12-19T11:47:13.669Z,52.22
2022-12-19T11:49:46.223Z,44.60
2022-12-19T11:53:02.751Z,49.63
2022-12-19T11:55:26.471Z,51.72
2022-12-19T11:57:55.762Z,43.03
2022-12-19T12:00:28.274Z,55.58
2022-12-19T12:03:35.211Z,46.47
2022-12-19T12:06:12.398Z,52.50
2022-12-19T12:11:09.176Z,44.10
2022-12-19T12:18:53.041Z,45.17
2022-12-19T12:24:42.544Z,53.25
2022-12-19T12:31:01.112Z,52.80
2022-12-19T12:31:26.704Z,49.72
2022-12-19T12:31:45.125Z,49.13
2022-12-19T12:31:46.051Z,50.00
2022-12-19T12:31:52.923Z,40.10
2022-12-19T12:35:54.022Z,57.08
2022-12-19T12:37:51.477Z,56.42
2022-12-19T12:39:00.944Z,46.15
2022-12-19T12:42:00.145Z,50.88
2022-12-19T12:44:33.451Z,48.90
2022-12-19T12:47:10.180Z,40.65
2022-12-19T12:49:42.049Z,51.53
2022-12-19T12:52:17.942Z,54.63
2022-12-19T12:54:51.053Z,52.40
2022-12-19T12:57:22.075Z,46.78
2022-12-19T13:00:17.206Z,53.42
2022-12-19T13:02:48.953Z,52.55
2022-12-19T13:05:30.839Z,48.90
2022-12-19T13:07:59.662Z,46.13
2022-12-19T13:10:29.885Z,54.42
2022-12-19T13:13:01.577Z,48.10
2022-12-19T13:15:40.496Z,49.67
2022-12-19T13:18:32.559Z,53.25
2022-12-19T13:21:03.013Z,53.65
2022-12-19T13:23:43.682Z,43.85
2022-12-19T13:26:23.367Z,45.10
2022-12-19T13:28:51.809Z,43.55
2022-12-19T13:31:23.534Z,50.45
2022-12-19T13:34:20.372Z,47.03
2022-12-19T13:39:49.937Z,51.92
2022-12-19T13:40:08.717Z,53.28
2022-12-19T13:43:09.602Z,53.65
2022-12-19T13:45:41.399Z,50.83
2022-12-19T13:48:17.913Z,47.30
2022-12-19T13:50:49.598Z,47.55
2022-12-19T13:53:18.862Z,58.13
2022-12-19T13:55:47.272Z,54.58
2022-12-19T13:58:29.342Z,55.20
2022-12-19T14:00:59.956Z,55.88
2022-12-19T14:03:36.334Z,45.38
2022-12-19T14:06:16.969Z,49.25
2022-12-19T14:09:16.344Z,44.13
2022-12-19T14:13:37.983Z,48.95
2022-12-19T14:14:48.770Z,43.00
2022-12-19T14:17:31.073Z,42.83
2022-12-19T14:20:28.648Z,48.53
2022-12-19T14:22:48.729Z,46.20
2022-12-19T14:27:30.683Z,55.22
2022-12-19T14:28:20.805Z,51.83
2022-12-19T14:31:01.531Z,49.95
2022-12-19T14:33:44.432Z,49.92
2022-12-19T14:36:27.298Z,45.53
2022-12-19T14:39:25.483Z,41.92
2022-12-19T14:42:04.445Z,46.72
2022-12-19T14:51:09.060Z,47.53
2022-12-19T14:54:11.033Z,46.83
2022-12-19T14:54:28.277Z,46.10
2022-12-19T14:54:33.738Z,53.03
2022-12-19T14:56:59.089Z,56.20
2022-12-19T14:59:31.582Z,48.08
2022-12-19T15:02:03.528Z,57.63
2022-12-19T15:04:52.889Z,55.45
2022-12-19T15:07:26.070Z,43.75
2022-12-19T15:11:03.851Z,51.63
2022-12-19T15:14:46.843Z,54.15
2022-12-19T15:16:03.840Z,60.45
2022-12-19T15:18:40.641Z,59.05
2022-12-19T15:21:11.344Z,51.80
2022-12-19T15:23:39.940Z,57.05
2022-12-19T15:26:15.460Z,49.00
2022-12-19T15:28:47.410Z,54.13
2022-12-19T15:31:26.968Z,49.05
2022-12-19T15:36:43.343Z,57.30
2022-12-19T15:39:11.491Z,58.33
2022-12-19T15:41:41.018Z,54.25
2022-12-19T15:44:15.681Z,60.90
2022-12-19T15:46:48.655Z,58.70
2022-12-19T15:49:18.835Z,66.93
2022-12-19T15:51:47.198Z,51.60
2022-12-19T15:54:47.077Z,54.72
2022-12-19T15:57:05.316Z,52.97
2022-12-19T15:59:38.563Z,56.75
2022-12-19T16:02:17.717Z,45.63
2022-12-19T16:04:47.602Z,58.83
2022-12-19T16:07:17.817Z,45.03
2022-12-19T16:09:46.093Z,53.80
2022-12-19T16:12:18.113Z,54.60
2022-12-19T16:14:47.744Z,57.75
2022-12-19T16:17:22.431Z,47.50
2022-12-19T16:19:51.301Z,45.40
2022-12-19T16:22:22.623Z,57.45
2022-12-19T16:24:51.300Z,50.97
2022-12-19T16:27:25.126Z,58.58
2022-12-19T16:29:54.132Z,50.05
2022-12-19T16:32:24.679Z,60.85
2022-12-19T16:34:53.611Z,56.83
2022-12-19T16:37:25.710Z,61.70
2022-12-19T16:39:56.772Z,55.95
2022-12-19T16:42:26.215Z,61.78
2022-12-19T16:44:54.396Z,50.28
2022-12-19T16:47:22.574Z,49.67
2022-12-19T16:49:50.700Z,52.60
2022-12-19T16:52:18.854Z,52.58
2022-12-19T16:54:46.932Z,57.50
2022-12-19T16:57:20.978Z,43.15
2022-12-19T16:59:51.587Z,49.65
2022-12-19T17:02:49.330Z,53.90
2022-12-19T17:05:20.632Z,52.58
2022-12-19T17:07:49.203Z,55.05
2022-12-19T17:10:22.799Z,53.78
2022-12-19T17:12:54.657Z,51.00
2022-12-19T17:15:30.066Z,51.67
2022-12-19T17:18:00.505Z,65.13
2022-12-19T17:20:32.741Z,58.70
2022-12-19T17:23:00.881Z,53.72
2022-12-19T17:25:29.576Z,48.95
2022-12-19T17:27:57.890Z,51.22
2022-12-19T17:30:27.520Z,55.60
2022-12-19T17:32:56.804Z,52.17
2022-12-19T17:35:29.040Z,49.78
2022-12-19T17:37:58.649Z,59.47
2022-12-19T17:40:29.589Z,40.65
2022-12-19T17:42:58.628Z,51.67
2022-12-19T17:45:30.467Z,49.97
2022-12-19T17:48:03.283Z,55.40
2022-12-19T17:50:37.517Z,50.55
2022-12-19T17:53:05.761Z,55.53
2022-12-19T17:55:34.628Z,51.80
2022-12-19T17:58:02.765Z,46.97
2022-12-19T18:00:34.738Z,41.13
2022-12-19T18:03:11.290Z,51.75
2022-12-19T18:05:39.566Z,53.70
2022-12-19T18:08:16.222Z,57.05
2022-12-19T18:10:44.304Z,60.78
2022-12-19T18:13:12.428Z,61.45
2022-12-19T18:15:43.030Z,53.67
2022-12-19T18:18:14.882Z,55.20
2022-12-19T18:20:45.069Z,49.50
2022-12-19T18:23:19.087Z,54.88
2022-12-19T18:25:48.144Z,51.03
2022-12-19T18:28:17.132Z,53.72
2022-12-19T18:30:48.315Z,62.40
2022-12-19T18:33:19.636Z,58.95
2022-12-19T18:35:49.297Z,57.20
2022-12-19T18:38:19.885Z,57.53
2022-12-19T18:40:49.492Z,50.45
2022-12-19T18:43:19.015Z,54.10
2022-12-19T18:45:51.796Z,52.08
2022-12-19T18:50:59.141Z,50.67
2022-12-19T18:53:35.336Z,48.25
2022-12-19T18:56:09.706Z,47.13
2022-12-19T18:58:38.407Z,52.35
2022-12-19T19:01:15.610Z,55.63
2022-12-19T19:03:50.454Z,53.30
2022-12-19T19:06:21.029Z,57.30
2022-12-19T19:08:50.784Z,60.40
2022-12-19T19:11:23.756Z,52.85
2022-12-19T19:13:52.401Z,50.78
2022-12-19T19:16:25.157Z,60.22
2022-12-19T19:21:26.345Z,47.08
2022-12-19T19:23:59.596Z,55.53
2022-12-19T19:26:27.957Z,50.28
2022-12-19T19:28:56.515Z,52.70
2022-12-19T19:31:30.842Z,53.95
2022-12-19T19:34:02.863Z,52.22
2022-12-19T19:36:34.366Z,54.25
2022-12-19T19:39:04.166Z,56.70
2022-12-19T19:41:34.622Z,62.13
2022-12-19T19:44:03.383Z,63.08
2022-12-19T19:46:33.794Z,68.50
2022-12-19T19:49:02.872Z,51.92
2022-12-19T19:51:31.194Z,57.00
2022-12-19T19:54:00.335Z,60.65
2022-12-19T19:56:29.391Z,58.08
2022-12-19T19:59:00.484Z,61.80
2022-12-19T20:01:30.134Z,56.95
2022-12-19T20:04:03.402Z,70.78
2022-12-19T20:06:33.322Z,59.55
2022-12-19T20:09:03.806Z,63.17
2022-12-19T20:11:31.987Z,59.65
2022-12-19T20:14:00.653Z,55.55
2022-12-19T20:16:29.363Z,61.50
2022-12-19T20:19:00.026Z,59.20
2022-12-19T20:21:29.336Z,57.42
2022-12-19T20:23:57.831Z,60.70
2022-12-19T20:26:26.287Z,72.95
2022-12-19T20:28:54.464Z,68.47
2022-12-19T20:31:24.873Z,58.53
2022-12-19T20:33:56.178Z,65.93
2022-12-19T20:36:27.412Z,63.65
2022-12-19T20:38:56.703Z,66.55
2022-12-19T20:41:25.465Z,58.13
2022-12-19T20:43:54.400Z,57.20
2022-12-19T20:46:23.315Z,68.30
2022-12-19T20:48:52.459Z,54.10
2022-12-19T20:51:22.140Z,65.70
2022-12-19T20:53:53.978Z,67.55
2022-12-19T20:56:26.050Z,66.70
2022-12-19T20:58:54.662Z,60.67
2022-12-19T21:01:24.972Z,64.95
2022-12-19T21:03:54.250Z,65.38
2022-12-19T21:06:25.476Z,62.78
2022-12-19T21:08:55.587Z,61.42
2022-12-19T21:11:24.560Z,68.28
2022-12-19T21:13:52.872Z,70.30
2022-12-19T21:16:23.495Z,64.20
2022-12-19T21:18:52.566Z,62.80
2022-12-19T21:21:23.210Z,65.05
2022-12-19T21:23:52.292Z,67.18
2022-12-19T21:26:22.919Z,59.08
2022-12-19T21:28:51.116Z,59.65
2022-12-19T21:31:22.070Z,67.72
2022-12-19T21:33:51.551Z,63.03
2022-12-19T21:36:22.053Z,57.05
2022-12-19T21:38:52.334Z,57.28
2022-12-19T21:41:22.623Z,62.47
2022-12-19T21:43:53.586Z,60.80
2022-12-19T21:46:24.069Z,59.17
2022-12-19T21:48:54.588Z,64.72
2022-12-19T21:51:25.189Z,61.85
2022-12-19T21:53:55.110Z,66.45
2022-12-19T21:56:27.088Z,61.95
2022-12-19T21:58:57.542Z,57.65
2022-12-19T22:01:27.061Z,63.10
2022-12-19T22:04:00.439Z,66.80
2022-12-19T22:06:31.166Z,59.13
2022-12-19T22:09:03.074Z,77.97
2022-12-19T22:11:33.138Z,59.80
2022-12-19T22:14:02.637Z,67.22
2022-12-19T22:16:30.856Z,60.13
2022-12-19T22:18:59.426Z,59.45
2022-12-19T22:21:28.203Z,68.38
2022-12-19T22:23:58.865Z,60.80
2022-12-19T22:26:28.467Z,62.67
2022-12-19T22:28:58.957Z,67.70
2022-12-19T22:31:29.199Z,64.57
2022-12-19T22:33:59.398Z,71.32
2022-12-19T22:36:34.220Z,68.45
2022-12-19T22:39:04.548Z,66.35
2022-12-19T22:41:34.688Z,77.35
2022-12-19T22:44:04.886Z,59.33
2022-12-19T22:46:34.396Z,75.70
2022-12-19T22:49:06.198Z,68.97
2022-12-19T22:51:35.975Z,64.00
2022-12-19T22:54:04.404Z,63.53
2022-12-19T22:56:33.717Z,72.35
2022-12-19T22:59:05.443Z,62.53
2022-12-19T23:01:36.979Z,62.05
2022-12-19T23:04:07.198Z,64.93
2022-12-19T23:06:37.476Z,75.60
2022-12-19T23:09:17.051Z,67.72
2022-12-19T23:11:47.164Z,60.75
2022-12-19T23:14:18.876Z,67.90
2022-12-19T23:16:47.322Z,70.68
2022-12-19T23:19:17.121Z,64.00
2022-12-19T23:21:45.369Z,76.18
2022-12-19T23:24:13.714Z,62.38
2022-12-19T23:26:41.988Z,71.55
2022-12-19T23:29:13.005Z,69.10
2022-12-19T23:31:44.992Z,74.32
2022-12-19T23:34:14.076Z,69.55
2022-12-19T23:39:30.591Z,62.38
2022-12-19T23:41:58.859Z,63.45
2022-12-19T23:44:27.324Z,69.70
2022-12-19T23:47:03.100Z,65.13
2022-12-19T23:49:32.310Z,74.18
2022-12-19T23:52:00.481Z,64.65
2022-12-19T23:54:29.525Z,68.35
2022-12-19T23:56:57.839Z,74.00
2022-12-19T23:59:26.007Z,68.15
